Time;durP1;ratioP1;P1;durP2;ratioP2;P2;SDS_P1;SDS_P2;PMS_P1;PMS_P2;Temp;Humidity;BMP_temperature;BMP_pressure;BME280_temperature;BME280_humidity;BME280_pressure;Samples;Min_cycle;Max_cycle;Signal;HPM_P1;HPM_P2
2023/04/27 00:00:10;;;;;;;10.75;4.25;;;9.60;64.60;;;;;;5052202;28;20021;-66
2023/04/27 00:02:38;;;;;;;9.70;4.32;;;9.60;65.10;;;;;;5052557;28;20032;-66
2023/04/27 00:05:04;;;;;;;12.35;3.90;;;9.60;65.10;;;;;;5052528;28;20052;-66
2023/04/27 00:07:31;;;;;;;7.22;3.85;;;9.60;64.90;;;;;;5052185;28;20048;-65
2023/04/27 00:09:57;;;;;;;10.68;4.20;;;9.60;65.80;;;;;;5050035;28;20086;-66
2023/04/27 00:12:22;;;;;;;11.25;3.70;;;9.60;65.70;;;;;;5051848;28;20025;-65
2023/04/27 00:14:48;;;;;;;10.55;3.78;;;9.60;65.60;;;;;;5052373;28;20068;-65
2023/04/27 00:17:14;;;;;;;8.57;3.58;;;9.60;65.70;;;;;;5050619;28;20090;-66
2023/04/27 00:19:40;;;;;;;8.30;3.72;;;9.60;66.10;;;;;;5052913;28;20036;-64
2023/04/27 00:22:07;;;;;;;7.35;3.70;;;9.60;66.20;;;;;;5052212;28;20029;-66
2023/04/27 00:24:33;;;;;;;7.32;3.70;;;9.60;66.60;;;;;;5052103;28;20527;-65
2023/04/27 00:26:59;;;;;;;10.93;4.25;;;9.60;67.10;;;;;;5052153;28;20025;-65
2023/04/27 00:29:25;;;;;;;6.40;3.58;;;9.60;67.20;;;;;;5051738;28;20029;-65
2023/04/27 00:31:50;;;;;;;8.10;3.50;;;9.60;67.30;;;;;;5050918;28;20025;-65
2023/04/27 00:34:16;;;;;;;5.35;3.45;;;9.50;67.10;;;;;;5051721;28;20465;-67
2023/04/27 00:36:41;;;;;;;7.10;3.90;;;9.50;67.40;;;;;;5050759;28;20068;-66
2023/04/27 00:39:07;;;;;;;9.27;4.00;;;9.50;67.80;;;;;;5051988;28;20025;-65
2023/04/27 00:41:37;;;;;;;12.05;3.67;;;9.50;67.70;;;;;;5052025;28;20441;-65
2023/04/27 00:44:02;;;;;;;6.55;3.65;;;9.50;67.90;;;;;;5051648;28;20040;-65
2023/04/27 00:46:28;;;;;;;9.48;3.85;;;9.50;67.90;;;;;;5051298;28;20032;-66
2023/04/27 00:48:55;;;;;;;6.90;3.38;;;9.40;68.10;;;;;;5051982;28;20035;-64
2023/04/27 00:51:21;;;;;;;9.73;3.88;;;9.50;68.10;;;;;;5050804;28;20094;-64
2023/04/27 00:53:49;;;;;;;6.88;3.25;;;9.40;68.50;;;;;;5051756;28;20433;-65
2023/04/27 00:56:15;;;;;;;5.35;3.35;;;9.40;68.00;;;;;;5051278;28;20052;-65
2023/04/27 00:58:41;;;;;;;9.98;3.40;;;9.40;68.10;;;;;;5051648;28;20074;-65
2023/04/27 01:01:07;;;;;;;8.82;3.22;;;9.40;68.30;;;;;;5051827;28;20497;-65
2023/04/27 01:03:33;;;;;;;6.68;3.10;;;9.30;68.00;;;;;;5050350;28;20040;-65
2023/04/27 01:06:00;;;;;;;10.25;3.20;;;9.40;68.10;;;;;;5051365;28;20025;-66
2023/04/27 01:08:28;;;;;;;6.78;3.20;;;9.30;68.00;;;;;;5050960;28;20021;-65
2023/04/27 01:10:54;;;;;;;9.93;3.25;;;9.20;68.00;;;;;;5051425;28;20378;-66
2023/04/27 01:13:21;;;;;;;5.28;2.83;;;9.20;68.20;;;;;;5051088;28;20025;-64
2023/04/27 01:15:47;;;;;;;9.98;3.67;;;9.20;68.30;;;;;;5051485;28;20033;-64
2023/04/27 01:18:13;;;;;;;8.73;3.40;;;9.20;68.40;;;;;;5051166;28;20112;-65
2023/04/27 01:20:38;;;;;;;10.10;3.38;;;9.20;67.40;;;;;;5051604;28;20104;-66
2023/04/27 01:23:04;;;;;;;4.78;2.83;;;9.20;67.80;;;;;;5051232;28;20453;-65
2023/04/27 01:25:30;;;;;;;7.82;3.13;;;9.20;67.70;;;;;;5050721;28;20116;-66
2023/04/27 01:27:56;;;;;;;11.75;3.58;;;9.20;67.30;;;;;;5051435;28;20043;-65
2023/04/27 01:30:22;;;;;;;5.55;3.20;;;9.10;67.30;;;;;;5051140;28;20394;-65
2023/04/27 01:32:48;;;;;;;7.85;3.42;;;9.10;67.90;;;;;;5051481;28;20419;-65
2023/04/27 01:35:14;;;;;;;5.13;2.90;;;9.10;68.00;;;;;;5050930;28;20029;-66
2023/04/27 01:37:40;;;;;;;4.25;2.80;;;9.00;67.80;;;;;;5051289;28;20037;-66
2023/04/27 01:40:07;;;;;;;4.28;2.55;;;9.00;67.90;;;;;;5051393;28;20443;-65
2023/04/27 01:42:32;;;;;;;6.90;2.90;;;9.00;68.30;;;;;;5050886;28;20508;-66
2023/04/27 01:44:59;;;;;;;8.20;3.10;;;9.00;68.40;;;;;;5051141;28;20085;-64
2023/04/27 01:47:25;;;;;;;9.02;3.22;;;8.90;68.80;;;;;;5050908;28;20108;-65
2023/04/27 01:49:51;;;;;;;7.10;3.03;;;8.90;68.70;;;;;;5051172;28;20033;-67
2023/04/27 01:52:16;;;;;;;4.63;2.67;;;8.90;69.10;;;;;;5050964;28;20021;-66
2023/04/27 01:54:42;;;;;;;5.43;2.75;;;8.90;69.30;;;;;;5051210;28;20037;-66
2023/04/27 01:57:08;;;;;;;9.00;3.22;;;8.90;69.80;;;;;;5050894;28;20029;-65
2023/04/27 01:59:33;;;;;;;8.55;3.40;;;8.80;69.90;;;;;;5050499;28;20029;-66
2023/04/27 02:01:59;;;;;;;6.03;3.20;;;8.80;70.10;;;;;;5051241;28;20049;-66
2023/04/27 02:04:25;;;;;;;6.60;2.90;;;8.80;70.30;;;;;;5053996;28;20110;-66
2023/04/27 02:06:50;;;;;;;6.47;3.08;;;8.70;70.00;;;;;;5054692;28;20130;-66
2023/04/27 02:09:16;;;;;;;8.43;3.20;;;8.70;70.30;;;;;;5054412;28;20457;-66
2023/04/27 02:11:42;;;;;;;7.53;3.30;;;8.70;70.70;;;;;;5054836;28;20349;-67
2023/04/27 02:14:07;;;;;;;5.40;3.17;;;8.60;71.00;;;;;;5054686;28;20354;-66
2023/04/27 02:16:33;;;;;;;8.20;2.97;;;8.60;71.20;;;;;;5054241;28;20043;-67
2023/04/27 02:18:59;;;;;;;5.97;2.92;;;8.60;70.90;;;;;;5054895;28;20120;-66
2023/04/27 02:21:25;;;;;;;6.20;2.63;;;8.60;70.70;;;;;;5053891;28;20029;-66
2023/04/27 02:23:50;;;;;;;6.22;3.08;;;8.60;71.00;;;;;;5054560;28;20091;-66
2023/04/27 02:26:21;;;;;;;5.05;3.08;;;8.60;71.10;;;;;;5052789;28;20029;-66
2023/04/27 02:28:47;;;;;;;4.90;3.00;;;8.50;72.00;;;;;;5054493;28;20112;-66
2023/04/27 02:31:13;;;;;;;7.07;2.80;;;8.50;72.50;;;;;;5053837;28;20079;-66
2023/04/27 02:33:40;;;;;;;7.20;3.22;;;8.40;72.40;;;;;;5054314;28;20049;-66
2023/04/27 02:36:07;;;;;;;6.50;3.17;;;8.40;72.80;;;;;;5054253;28;20041;-66
2023/04/27 02:38:32;;;;;;;9.20;3.28;;;8.40;73.20;;;;;;5053624;28;20381;-65
2023/04/27 02:40:58;;;;;;;9.68;4.07;;;8.40;73.30;;;;;;5053939;28;20037;-66
2023/04/27 02:43:24;;;;;;;4.78;2.58;;;8.30;73.30;;;;;;5053602;28;20036;-67
2023/04/27 02:45:49;;;;;;;8.80;3.45;;;8.30;73.70;;;;;;5054125;28;20105;-66
2023/04/27 02:48:15;;;;;;;8.93;3.50;;;8.30;74.10;;;;;;5053754;28;20037;-66
2023/04/27 02:50:44;;;;;;;7.32;3.03;;;8.30;74.10;;;;;;5054069;28;20025;-66
2023/04/27 02:53:11;;;;;;;7.15;3.15;;;8.20;74.10;;;;;;5053874;28;20040;-66
2023/04/27 02:55:38;;;;;;;9.75;3.55;;;8.20;74.80;;;;;;5053818;28;20131;-67
2023/04/27 02:58:04;;;;;;;8.57;3.35;;;8.20;75.40;;;;;;5053877;28;20122;-66
2023/04/27 03:00:29;;;;;;;6.97;2.88;;;8.10;75.40;;;;;;5053275;28;20053;-66
2023/04/27 03:02:55;;;;;;;6.15;3.35;;;8.10;76.00;;;;;;5053866;28;20355;-66
2023/04/27 03:05:21;;;;;;;5.88;3.15;;;8.00;76.20;;;;;;5053299;28;20495;-66
2023/04/27 03:07:47;;;;;;;6.65;3.58;;;8.00;76.70;;;;;;5053807;28;20043;-65
2023/04/27 03:10:13;;;;;;;7.80;3.28;;;8.00;76.60;;;;;;5052861;28;20029;-66
2023/04/27 03:12:39;;;;;;;6.00;3.45;;;8.00;76.60;;;;;;5053042;28;20028;-66
2023/04/27 03:15:05;;;;;;;5.90;3.08;;;8.00;76.10;;;;;;5052959;28;20040;-65
2023/04/27 03:17:31;;;;;;;5.97;2.97;;;8.00;76.20;;;;;;5053003;28;20033;-65
2023/04/27 03:19:56;;;;;;;10.25;3.22;;;8.00;75.80;;;;;;5053210;28;20029;-65
2023/04/27 03:22:22;;;;;;;4.88;3.00;;;7.90;75.70;;;;;;5052698;28;20476;-65
2023/04/27 03:24:47;;;;;;;8.70;3.00;;;7.90;75.60;;;;;;5053379;28;20025;-65
2023/04/27 03:27:13;;;;;;;8.25;3.40;;;7.90;75.60;;;;;;5053376;28;20382;-69
2023/04/27 03:29:39;;;;;;;6.05;3.20;;;7.90;75.50;;;;;;5053367;28;20040;-65
2023/04/27 03:32:05;;;;;;;8.15;3.55;;;7.90;75.90;;;;;;5053548;28;20029;-66
2023/04/27 03:34:30;;;;;;;5.97;3.17;;;7.90;76.20;;;;;;5052789;28;20032;-66
2023/04/27 03:36:56;;;;;;;10.57;3.53;;;7.80;76.40;;;;;;5053129;28;20037;-66
2023/04/27 03:39:22;;;;;;;5.75;3.13;;;7.80;76.70;;;;;;5052677;28;20362;-66
2023/04/27 03:41:48;;;;;;;5.68;3.78;;;7.80;77.00;;;;;;5053130;28;20146;-66
2023/04/27 03:44:14;;;;;;;9.48;3.83;;;7.80;77.30;;;;;;5052825;28;20132;-66
2023/04/27 03:46:39;;;;;;;4.95;3.22;;;7.80;77.30;;;;;;5053157;28;20040;-66
2023/04/27 03:49:05;;;;;;;7.80;3.88;;;7.70;77.40;;;;;;5052543;28;20025;-66
2023/04/27 03:51:31;;;;;;;10.93;3.80;;;7.70;77.70;;;;;;5052643;28;20123;-66
2023/04/27 03:53:57;;;;;;;10.27;3.45;;;7.60;77.70;;;;;;5052832;28;20040;-66
2023/04/27 03:56:23;;;;;;;11.93;3.50;;;7.70;78.20;;;;;;5050573;28;20033;-66
2023/04/27 03:58:49;;;;;;;5.88;3.08;;;7.70;78.20;;;;;;5052716;28;20061;-66
2023/04/27 04:01:15;;;;;;;8.90;3.47;;;7.70;78.40;;;;;;5052321;28;20075;-66
2023/04/27 04:03:41;;;;;;;9.07;3.45;;;7.70;78.80;;;;;;5052747;28;20414;-66
2023/04/27 04:06:07;;;;;;;9.85;3.80;;;7.70;78.40;;;;;;5052618;28;20028;-66
2023/04/27 04:08:33;;;;;;;8.43;3.92;;;7.70;78.80;;;;;;5052223;28;20546;-68
2023/04/27 04:10:59;;;;;;;6.95;3.65;;;7.70;78.80;;;;;;5052256;28;20055;-66
2023/04/27 04:13:25;;;;;;;10.82;4.20;;;7.70;78.80;;;;;;5051997;28;20529;-66
2023/04/27 04:16:06;;;;;;;8.05;3.63;;;7.70;79.20;;;;;;5052443;28;20029;-66
2023/04/27 04:18:32;;;;;;;14.35;3.92;;;7.70;79.30;;;;;;5052005;28;20025;-65
2023/04/27 04:20:58;;;;;;;12.82;4.32;;;7.70;79.50;;;;;;5056161;28;20031;-66
2023/04/27 04:23:24;;;;;;;11.48;4.15;;;7.70;79.60;;;;;;5066101;28;20103;-66
2023/04/27 04:25:50;;;;;;;9.70;3.92;;;7.80;79.80;;;;;;5059417;28;20019;-66
2023/04/27 04:28:16;;;;;;;6.00;3.80;;;7.80;80.20;;;;;;5070427;28;20028;-66
2023/04/27 04:30:42;;;;;;;16.20;4.43;;;7.80;80.60;;;;;;5053747;28;20036;-66
2023/04/27 04:33:08;;;;;;;11.82;4.32;;;7.90;80.80;;;;;;5052027;28;20449;-66
2023/04/27 04:35:37;;;;;;;16.20;4.10;;;8.00;80.80;;;;;;5051828;28;20362;-66
2023/04/27 04:38:03;;;;;;;16.15;4.78;;;8.00;81.00;;;;;;5052156;28;20037;-66
2023/04/27 04:40:29;;;;;;;12.40;4.15;;;8.10;81.30;;;;;;5051738;28;20048;-66
2023/04/27 04:42:55;;;;;;;8.27;4.10;;;8.20;81.00;;;;;;5052011;28;20020;-66
2023/04/27 04:45:21;;;;;;;10.25;4.45;;;8.30;80.70;;;;;;5051524;28;20048;-66
2023/04/27 04:47:48;;;;;;;9.27;4.15;;;8.50;79.80;;;;;;5050714;28;20436;-66
2023/04/27 04:50:13;;;;;;;11.30;5.13;;;8.70;79.50;;;;;;5051991;28;20053;-65
2023/04/27 04:52:39;;;;;;;9.57;4.78;;;8.90;78.60;;;;;;5051544;28;20492;-66
2023/04/27 04:55:05;;;;;;;10.18;4.82;;;9.00;77.90;;;;;;5052087;28;20360;-66
2023/04/27 04:57:31;;;;;;;13.27;5.85;;;9.10;77.50;;;;;;5051456;28;20037;-66
2023/04/27 04:59:57;;;;;;;11.23;4.78;;;9.20;77.70;;;;;;5052071;28;20090;-67
2023/04/27 05:02:22;;;;;;;17.50;5.22;;;9.30;77.50;;;;;;5051092;28;20025;-66
2023/04/27 05:04:50;;;;;;;15.65;5.05;;;9.40;76.80;;;;;;5051797;28;20454;-65
2023/04/27 05:07:16;;;;;;;14.18;5.00;;;9.50;76.80;;;;;;5052134;28;20461;-70
2023/04/27 05:09:42;;;;;;;12.77;5.15;;;9.70;76.50;;;;;;5052049;28;20056;-65
2023/04/27 05:12:08;;;;;;;12.32;4.78;;;9.80;76.60;;;;;;5051590;28;20424;-66
2023/04/27 05:14:34;;;;;;;9.70;4.47;;;9.90;75.70;;;;;;5051443;28;20071;-66
2023/04/27 05:17:00;;;;;;;13.23;5.03;;;10.00;74.90;;;;;;5051425;28;20041;-65
2023/04/27 05:19:28;;;;;;;13.52;4.47;;;10.10;74.40;;;;;;5050259;28;20044;-67
2023/04/27 05:21:54;;;;;;;10.20;4.88;;;10.20;73.80;;;;;;5050026;28;20037;-66
2023/04/27 05:24:20;;;;;;;7.10;4.00;;;10.30;71.50;;;;;;5049082;28;20029;-71
2023/04/27 05:26:45;;;;;;;12.55;4.32;;;10.40;71.20;;;;;;5048508;28;20037;-65
2023/04/27 05:29:11;;;;;;;11.98;3.88;;;10.40;69.40;;;;;;5046251;28;20052;-66
2023/04/27 05:31:36;;;;;;;12.88;4.45;;;10.40;70.60;;;;;;5048090;28;20037;-66
2023/04/27 05:34:02;;;;;;;14.88;4.18;;;10.50;70.40;;;;;;5050020;28;20032;-65
2023/04/27 05:36:28;;;;;;;9.32;4.60;;;10.60;70.20;;;;;;5048248;28;20037;-65
2023/04/27 05:38:54;;;;;;;8.25;3.95;;;10.60;67.40;;;;;;5051738;28;20481;-65
2023/04/27 05:41:20;;;;;;;8.65;3.95;;;10.70;65.60;;;;;;5053200;28;20492;-70
2023/04/27 05:43:46;;;;;;;6.90;3.65;;;10.80;62.70;;;;;;5051882;28;20028;-66
2023/04/27 05:46:15;;;;;;;7.75;4.00;;;10.90;62.60;;;;;;5053242;28;20041;-66
2023/04/27 05:48:40;;;;;;;9.40;3.92;;;11.00;62.40;;;;;;5052286;28;20481;-66
2023/04/27 05:51:06;;;;;;;10.07;3.67;;;11.10;62.90;;;;;;5052465;28;20029;-66
2023/04/27 05:53:33;;;;;;;7.82;4.05;;;11.10;61.20;;;;;;5051389;28;20115;-66
2023/04/27 05:55:59;;;;;;;13.50;4.50;;;11.20;61.50;;;;;;5052642;28;20105;-66
2023/04/27 05:58:26;;;;;;;6.65;3.30;;;11.20;61.10;;;;;;5051338;28;20106;-66
2023/04/27 06:00:53;;;;;;;10.32;4.40;;;11.40;59.80;;;;;;5052375;28;20398;-66
2023/04/27 06:03:18;;;;;;;8.88;4.55;;;11.60;58.80;;;;;;5051880;28;20435;-69
2023/04/27 06:05:44;;;;;;;9.43;4.63;;;11.60;59.60;;;;;;5052998;28;20033;-65
2023/04/27 06:08:11;;;;;;;8.63;4.03;;;11.60;59.00;;;;;;5052283;28;20359;-65
2023/04/27 06:10:40;;;;;;;9.50;4.53;;;11.60;59.80;;;;;;5052004;28;20112;-66
2023/04/27 06:13:05;;;;;;;7.63;4.30;;;11.70;60.50;;;;;;5054355;28;20171;-65
2023/04/27 06:15:31;;;;;;;6.53;3.67;;;11.90;59.90;;;;;;5053245;28;20111;-66
2023/04/27 06:17:57;;;;;;;7.60;4.20;;;12.10;58.50;;;;;;5053604;28;20036;-66
2023/04/27 06:20:22;;;;;;;7.53;4.30;;;12.20;58.00;;;;;;5053368;28;20033;-66
2023/04/27 06:22:48;;;;;;;7.20;4.00;;;12.20;57.60;;;;;;5053720;28;20021;-67
2023/04/27 06:25:14;;;;;;;6.53;3.75;;;12.30;57.30;;;;;;5053847;28;20098;-66
2023/04/27 06:27:39;;;;;;;6.85;3.60;;;12.30;57.10;;;;;;5052010;28;20032;-67
2023/04/27 06:30:06;;;;;;;9.30;3.60;;;12.60;57.20;;;;;;5053778;28;20100;-66
2023/04/27 06:32:32;;;;;;;8.95;3.00;;;13.00;55.90;;;;;;5052711;28;20025;-66
2023/04/27 06:34:57;;;;;;;10.25;3.45;;;13.30;50.20;;;;;;5052988;28;20112;-64
2023/04/27 06:37:24;;;;;;;7.03;3.33;;;13.40;51.00;;;;;;5051548;28;20386;-67
2023/04/27 06:39:50;;;;;;;6.00;3.53;;;13.40;51.30;;;;;;5053058;28;20102;-67
2023/04/27 06:42:16;;;;;;;6.93;3.65;;;13.30;51.20;;;;;;5053856;28;20462;-67
2023/04/27 06:44:41;;;;;;;9.70;4.18;;;13.40;51.90;;;;;;5053639;28;20099;-66
2023/04/27 06:47:07;;;;;;;9.05;4.43;;;13.50;51.60;;;;;;5054094;28;20384;-65
2023/04/27 06:49:34;;;;;;;9.95;3.60;;;13.70;50.70;;;;;;5052812;28;20052;-66
2023/04/27 06:52:01;;;;;;;10.98;3.67;;;13.90;50.50;;;;;;5054007;28;20021;-65
2023/04/27 06:54:27;;;;;;;8.35;3.50;;;14.00;49.20;;;;;;5053245;28;20032;-65
2023/04/27 06:56:53;;;;;;;11.80;4.00;;;14.20;49.20;;;;;;5053192;28;20422;-64
2023/04/27 06:59:19;;;;;;;12.40;4.53;;;14.40;49.90;;;;;;5053163;28;20032;-65
2023/04/27 07:01:45;;;;;;;8.02;3.72;;;14.50;49.40;;;;;;5053101;28;20051;-65
2023/04/27 07:04:11;;;;;;;13.27;4.35;;;14.70;48.10;;;;;;5053822;28;20024;-65
2023/04/27 07:06:36;;;;;;;9.48;3.63;;;14.90;46.60;;;;;;5053575;28;20357;-65
2023/04/27 07:09:04;;;;;;;7.35;3.40;;;15.20;46.90;;;;;;5052657;28;20025;-65
2023/04/27 07:11:30;;;;;;;11.13;3.70;;;15.20;44.30;;;;;;5051560;28;20017;-67
2023/04/27 07:13:56;;;;;;;9.95;3.30;;;15.40;44.90;;;;;;5053165;28;20017;-66
2023/04/27 07:16:21;;;;;;;7.78;3.80;;;15.70;44.70;;;;;;5052371;28;20032;-67
2023/04/27 07:18:47;;;;;;;7.32;3.58;;;16.20;44.90;;;;;;5053124;28;20048;-66
2023/04/27 07:21:13;;;;;;;8.90;3.20;;;16.40;43.40;;;;;;5053081;28;20017;-70
2023/04/27 07:23:42;;;;;;;10.13;4.05;;;16.50;43.30;;;;;;5055589;28;20025;-73
2023/04/27 07:26:08;;;;;;;7.25;3.20;;;16.50;44.50;;;;;;5062565;28;20025;-70
2023/04/27 07:28:34;;;;;;;11.55;3.78;;;16.70;43.50;;;;;;5056706;28;20377;-69
2023/04/27 07:31:03;;;;;;;10.52;3.55;;;16.60;41.90;;;;;;5059583;28;20044;-67
2023/04/27 07:33:29;;;;;;;10.55;3.85;;;16.70;44.00;;;;;;5052965;28;20029;-67
2023/04/27 07:35:55;;;;;;;9.60;3.63;;;16.30;43.50;;;;;;5054257;28;20423;-67
2023/04/27 07:38:21;;;;;;;9.27;3.55;;;16.10;43.90;;;;;;5055784;28;20033;-68
2023/04/27 07:40:46;;;;;;;10.68;3.20;;;16.10;44.40;;;;;;5052066;28;20040;-67
2023/04/27 07:43:12;;;;;;;16.17;3.70;;;15.90;42.80;;;;;;5053128;28;20104;-67
2023/04/27 07:45:40;;;;;;;44.35;4.57;;;15.70;43.80;;;;;;5052998;28;20049;-67
2023/04/27 07:48:06;;;;;;;53.50;5.97;;;15.60;43.70;;;;;;5053471;28;20033;-67
2023/04/27 07:50:32;;;;;;;10.75;3.35;;;15.50;43.80;;;;;;5052651;28;20055;-68
2023/04/27 07:52:58;;;;;;;11.93;3.15;;;15.40;46.60;;;;;;5053040;28;20029;-65
2023/04/27 07:55:25;;;;;;;9.07;3.08;;;15.40;46.20;;;;;;5052623;28;20409;-67
2023/04/27 07:57:54;;;;;;;12.65;3.60;;;15.40;45.80;;;;;;5053213;28;20025;-64
2023/04/27 08:00:20;;;;;;;7.90;2.42;;;15.40;44.40;;;;;;5052296;28;20036;-67
2023/04/27 08:02:46;;;;;;;10.65;2.95;;;15.00;41.60;;;;;;5052963;28;20032;-67
2023/04/27 08:05:12;;;;;;;7.07;2.90;;;14.90;42.70;;;;;;5052632;28;20148;-68
2023/04/27 08:07:38;;;;;;;4.82;2.20;;;14.80;41.30;;;;;;5052598;28;20036;-67
2023/04/27 08:10:05;;;;;;;15.23;2.60;;;14.70;40.90;;;;;;5051640;28;20454;-68
2023/04/27 08:12:32;;;;;;;16.25;2.38;;;14.70;40.60;;;;;;5052908;28;20029;-66
2023/04/27 08:14:57;;;;;;;7.25;2.78;;;14.60;41.50;;;;;;5053651;28;20083;-66
2023/04/27 08:17:23;;;;;;;19.92;3.47;;;14.70;42.70;;;;;;5060155;28;20033;-73
2023/04/27 08:19:49;;;;;;;7.78;2.67;;;14.80;41.30;;;;;;5071801;28;20035;-68
2023/04/27 08:22:15;;;;;;;7.43;2.50;;;14.80;41.10;;;;;;5070627;28;20036;-69
2023/04/27 08:24:40;;;;;;;20.42;3.28;;;14.80;40.90;;;;;;5056921;28;20054;-68
2023/04/27 08:27:06;;;;;;;11.55;2.80;;;14.80;41.60;;;;;;5063732;28;20024;-66
2023/04/27 08:29:32;;;;;;;67.57;5.43;;;14.90;42.00;;;;;;5052266;28;20098;-67
2023/04/27 08:32:00;;;;;;;9.32;2.85;;;14.80;40.90;;;;;;5070015;28;20060;-65
2023/04/27 08:34:26;;;;;;;10.90;2.08;;;15.00;42.50;;;;;;5053632;28;20025;-64
2023/04/27 08:36:52;;;;;;;4.35;2.22;;;15.10;41.70;;;;;;5053639;28;20122;-64
2023/04/27 08:39:18;;;;;;;6.90;2.42;;;15.20;40.00;;;;;;5052608;28;20033;-63
2023/04/27 08:41:45;;;;;;;8.52;3.17;;;15.30;40.10;;;;;;5052000;28;20025;-64
2023/04/27 08:44:11;;;;;;;9.27;2.58;;;15.40;39.60;;;;;;5053312;28;20063;-66
2023/04/27 08:46:37;;;;;;;5.07;2.42;;;15.50;41.10;;;;;;5054441;28;20405;-65
2023/04/27 08:49:03;;;;;;;4.90;2.25;;;15.60;41.00;;;;;;5052562;28;20025;-65
2023/04/27 08:51:31;;;;;;;6.78;2.60;;;15.60;39.70;;;;;;5053394;28;20033;-67
2023/04/27 08:53:57;;;;;;;6.28;2.75;;;15.70;39.80;;;;;;5053042;28;20044;-63
2023/04/27 08:56:24;;;;;;;7.07;2.83;;;15.60;39.90;;;;;;5052506;28;20040;-64
2023/04/27 08:58:51;;;;;;;9.00;2.88;;;15.80;39.50;;;;;;5052580;28;20112;-63
2023/04/27 09:01:17;;;;;;;8.13;2.50;;;16.00;39.60;;;;;;5052536;28;20474;-66
2023/04/27 09:03:45;;;;;;;7.05;2.45;;;16.20;38.90;;;;;;5056523;28;20051;-63
2023/04/27 09:06:11;;;;;;;6.82;2.67;;;16.00;38.40;;;;;;5052732;28;20493;-63
2023/04/27 09:08:41;;;;;;;9.48;2.55;;;16.20;39.40;;;;;;5052298;28;20051;-63
2023/04/27 09:11:06;;;;;;;7.07;2.63;;;16.40;39.40;;;;;;5052346;28;20148;-63
2023/04/27 09:13:39;;;;;;;4.05;2.47;;;16.50;39.60;;;;;;5051293;28;20155;-64
2023/04/27 09:16:05;;;;;;;6.47;2.72;;;16.50;39.00;;;;;;5052563;28;20041;-64
2023/04/27 09:18:35;;;;;;;4.10;2.22;;;16.60;39.70;;;;;;5051773;28;20029;-64
2023/04/27 09:21:03;;;;;;;6.87;2.53;;;16.70;38.80;;;;;;5052498;28;20032;-63
2023/04/27 09:23:36;;;;;;;4.63;2.35;;;16.80;37.30;;;;;;5051452;28;20029;-65
2023/04/27 09:26:09;;;;;;;7.10;2.30;;;16.90;38.80;;;;;;5051141;28;20033;-64
2023/04/27 09:28:38;;;;;;;3.78;2.22;;;17.00;38.10;;;;;;5051957;28;20500;-64
2023/04/27 09:31:04;;;;;;;7.72;2.38;;;16.90;37.90;;;;;;5050963;28;20366;-63
2023/04/27 09:33:31;;;;;;;7.53;2.63;;;16.90;37.60;;;;;;5051630;28;20485;-63
2023/04/27 09:36:00;;;;;;;6.78;2.42;;;16.90;38.60;;;;;;5052155;28;20029;-63
2023/04/27 09:38:28;;;;;;;6.72;2.83;;;16.60;37.10;;;;;;5052285;28;20037;-63
2023/04/27 09:40:54;;;;;;;7.32;3.20;;;16.30;36.80;;;;;;5052253;28;20112;-64
2023/04/27 09:43:20;;;;;;;6.43;2.55;;;16.40;37.40;;;;;;5052304;28;20172;-64
2023/04/27 09:45:47;;;;;;;5.82;2.50;;;16.60;39.50;;;;;;5051653;28;20048;-64
2023/04/27 09:48:13;;;;;;;5.95;2.58;;;16.80;39.30;;;;;;5051905;28;20029;-64
2023/04/27 09:50:41;;;;;;;4.65;2.58;;;16.80;37.80;;;;;;5051534;28;20025;-64
2023/04/27 09:53:14;;;;;;;8.10;2.50;;;16.90;37.10;;;;;;5052217;28;20033;-64
2023/04/27 09:55:47;;;;;;;7.60;2.40;;;16.80;36.60;;;;;;5051829;28;20078;-64
2023/04/27 09:58:16;;;;;;;6.10;2.42;;;17.00;38.50;;;;;;5051725;28;20025;-66
2023/04/27 10:01:35;;;;;;;6.43;2.50;;;17.10;37.30;;;;;;5051349;28;20482;-64
2023/04/27 10:04:21;;;;;;;6.43;2.28;;;17.10;37.00;;;;;;5029752;28;20029;-64
2023/04/27 10:07:01;;;;;;;5.28;2.42;;;17.00;38.10;;;;;;5029311;28;20038;-65
2023/04/27 10:09:35;;;;;;;6.45;2.42;;;17.10;38.00;;;;;;5029892;28;20137;-64
2023/04/27 10:12:13;;;;;;;7.85;2.63;;;17.10;38.20;;;;;;5029796;28;20028;-64
2023/04/27 10:14:56;;;;;;;8.82;2.78;;;17.10;38.70;;;;;;5029314;28;20037;-64
2023/04/27 10:17:32;;;;;;;5.05;2.45;;;17.00;36.60;;;;;;5029714;28;20085;-64
2023/04/27 10:20:02;;;;;;;8.00;2.50;;;17.10;38.70;;;;;;5029778;28;20051;-64
2023/04/27 10:22:51;;;;;;;7.70;2.40;;;17.20;39.00;;;;;;5029853;28;20042;-65
2023/04/27 10:25:20;;;;;;;7.28;2.65;;;17.30;38.70;;;;;;5031726;28;20032;-64
2023/04/27 10:27:55;;;;;;;8.20;2.97;;;17.20;36.70;;;;;;5032698;28;20042;-64
2023/04/27 10:30:26;;;;;;;6.03;2.83;;;17.10;36.60;;;;;;5033056;28;20536;-64
2023/04/27 10:32:55;;;;;;;5.97;2.55;;;17.10;36.20;;;;;;5032693;28;20029;-63
2023/04/27 10:35:32;;;;;;;5.25;2.35;;;16.90;36.30;;;;;;5049299;28;20142;-63
2023/04/27 10:38:09;;;;;;;10.65;2.78;;;17.10;37.30;;;;;;5054184;28;20377;-64
2023/04/27 10:40:38;;;;;;;8.18;3.03;;;17.20;37.50;;;;;;5054877;28;20032;-64
2023/04/27 10:43:15;;;;;;;4.72;2.38;;;17.30;37.70;;;;;;5055305;28;20074;-64
2023/04/27 10:45:42;;;;;;;7.95;2.85;;;17.20;36.70;;;;;;5054845;28;20045;-64
2023/04/27 10:48:08;;;;;;;9.20;2.45;;;17.30;37.10;;;;;;5053850;28;20374;-64
2023/04/27 10:50:34;;;;;;;6.38;2.95;;;17.40;37.90;;;;;;5054618;28;20071;-65
2023/04/27 10:53:04;;;;;;;10.40;2.65;;;17.50;37.20;;;;;;5054900;28;20061;-63
2023/04/27 10:55:31;;;;;;;8.38;2.88;;;17.40;37.50;;;;;;5054674;28;20474;-64
2023/04/27 10:57:57;;;;;;;7.93;3.30;;;17.30;37.60;;;;;;5054324;28;20371;-65
2023/04/27 11:00:28;;;;;;;5.82;3.33;;;17.30;37.70;;;;;;5054584;28;20082;-65
2023/04/27 11:02:56;;;;;;;5.75;2.75;;;17.30;36.70;;;;;;5054498;28;20031;-63
2023/04/27 11:05:24;;;;;;;5.00;3.10;;;17.30;36.70;;;;;;5054867;28;20029;-63
2023/04/27 11:07:50;;;;;;;5.82;2.78;;;17.20;36.00;;;;;;5054293;28;20110;-63
2023/04/27 11:10:18;;;;;;;8.70;3.20;;;17.10;36.10;;;;;;5054166;28;20060;-65
2023/04/27 11:12:44;;;;;;;8.55;3.10;;;17.10;36.80;;;;;;5054211;28;20032;-63
2023/04/27 11:15:11;;;;;;;6.93;3.00;;;17.00;36.50;;;;;;5054272;28;20462;-64
2023/04/27 11:17:37;;;;;;;10.00;3.28;;;16.90;36.90;;;;;;5054121;28;20033;-64
2023/04/27 11:20:09;;;;;;;8.57;3.50;;;17.00;37.10;;;;;;5054362;28;20091;-64
2023/04/27 11:22:45;;;;;;;6.95;3.30;;;16.80;36.40;;;;;;5054056;28;20029;-64
2023/04/27 11:25:11;;;;;;;7.10;3.45;;;16.60;37.40;;;;;;5054118;28;20462;-63
2023/04/27 11:27:38;;;;;;;6.22;3.45;;;16.50;37.50;;;;;;5053942;28;20082;-65
2023/04/27 11:30:06;;;;;;;10.13;3.83;;;16.30;37.80;;;;;;5054285;28;20067;-63
2023/04/27 11:32:32;;;;;;;10.07;3.58;;;16.40;37.90;;;;;;5054308;28;20029;-63
2023/04/27 11:34:57;;;;;;;10.00;3.08;;;16.50;37.30;;;;;;5052966;28;20029;-63
2023/04/27 11:37:25;;;;;;;7.75;3.20;;;16.40;38.00;;;;;;5054070;28;20374;-63
2023/04/27 11:39:53;;;;;;;6.72;3.28;;;16.50;38.10;;;;;;5053593;28;20055;-64
2023/04/27 11:42:21;;;;;;;7.18;3.63;;;16.50;37.50;;;;;;5053837;28;20435;-64
2023/04/27 11:44:55;;;;;;;10.80;3.50;;;16.50;37.20;;;;;;5053503;28;20057;-64
2023/04/27 11:47:22;;;;;;;9.68;3.70;;;16.50;37.50;;;;;;5053414;28;20029;-64
2023/04/27 11:49:48;;;;;;;7.35;3.22;;;16.60;37.70;;;;;;5053205;28;20520;-64
2023/04/27 11:52:15;;;;;;;8.32;3.60;;;16.60;37.80;;;;;;5053767;28;20326;-63
2023/04/27 11:54:51;;;;;;;5.45;3.13;;;16.80;38.00;;;;;;5053303;28;20037;-64
2023/04/27 11:57:28;;;;;;;4.93;3.10;;;16.90;39.40;;;;;;5053846;28;20032;-63
2023/04/27 11:59:55;;;;;;;7.28;3.60;;;17.00;38.40;;;;;;5053031;28;20366;-64
2023/04/27 12:02:22;;;;;;;8.18;3.92;;;17.10;38.30;;;;;;5053175;28;20470;-64
2023/04/27 12:04:51;;;;;;;8.57;3.33;;;17.20;38.90;;;;;;5052782;28;20056;-64
2023/04/27 12:07:17;;;;;;;7.80;3.15;;;17.20;38.20;;;;;;5053131;28;20144;-63
2023/04/27 12:09:42;;;;;;;10.30;3.67;;;17.20;37.20;;;;;;5053003;28;20020;-64
2023/04/27 12:12:09;;;;;;;6.70;3.67;;;17.10;36.30;;;;;;5053407;28;20458;-64
2023/04/27 12:14:35;;;;;;;5.97;3.38;;;17.10;37.20;;;;;;5053276;28;20421;-63
2023/04/27 12:17:01;;;;;;;9.68;4.13;;;17.10;37.40;;;;;;5052792;28;20029;-64
2023/04/27 12:19:27;;;;;;;7.53;4.10;;;17.10;39.20;;;;;;5052960;28;20501;-64
2023/04/27 12:21:53;;;;;;;7.85;3.67;;;17.10;38.50;;;;;;5052799;28;20025;-63
2023/04/27 12:24:18;;;;;;;4.88;3.50;;;17.20;37.90;;;;;;5053152;28;20033;-64
2023/04/27 12:26:45;;;;;;;11.20;4.43;;;17.20;37.50;;;;;;5052677;28;20028;-64
2023/04/27 12:29:11;;;;;;;4.85;3.75;;;17.10;36.80;;;;;;5052979;28;20060;-64
2023/04/27 12:31:37;;;;;;;5.97;3.25;;;17.00;37.30;;;;;;5052952;28;20529;-64
2023/04/27 12:34:02;;;;;;;6.60;4.22;;;16.90;37.30;;;;;;5052670;28;20100;-64
2023/04/27 12:36:28;;;;;;;8.85;3.95;;;16.90;38.50;;;;;;5052907;28;20036;-65
2023/04/27 12:38:59;;;;;;;7.80;3.80;;;16.70;37.40;;;;;;5052463;28;20033;-63
2023/04/27 12:41:25;;;;;;;8.90;4.43;;;16.60;38.00;;;;;;5053185;28;20025;-63
2023/04/27 12:43:51;;;;;;;6.80;3.85;;;16.60;37.70;;;;;;5052122;28;20386;-63
2023/04/27 12:46:17;;;;;;;11.02;4.63;;;16.50;37.90;;;;;;5052648;28;20090;-63